sensor_id;sensor_type;location;lat;lon;timestamp;pressure;altitude;pressure_sealevel;temperature;humidity
73671;BME280;61968;48.178;11.566;2023-07-09T00:02:11;96188.81;;;23.30;30.80
73671;BME280;61968;48.178;11.566;2023-07-09T00:04:38;96185.59;;;23.28;31.39
73671;BME280;61968;48.178;11.566;2023-07-09T00:07:05;96191.91;;;23.23;31.42
73671;BME280;61968;48.178;11.566;2023-07-09T00:09:31;96190.63;;;23.21;31.10
73671;BME280;61968;48.178;11.566;2023-07-09T00:11:58;96198.97;;;23.19;31.50
73671;BME280;61968;48.178;11.566;2023-07-09T00:14:24;96192.78;;;23.19;31.17
73671;BME280;61968;48.178;11.566;2023-07-09T00:16:52;96197.66;;;23.17;31.44
73671;BME280;61968;48.178;11.566;2023-07-09T00:19:21;96193.56;;;23.19;31.64
73671;BME280;61968;48.178;11.566;2023-07-09T00:21:49;96193.28;;;23.07;31.80
73671;BME280;61968;48.178;11.566;2023-07-09T00:24:18;96191.50;;;23.02;31.64
73671;BME280;61968;48.178;11.566;2023-07-09T00:26:45;96195.59;;;23.00;31.87
73671;BME280;61968;48.178;11.566;2023-07-09T00:29:13;96200.78;;;22.96;32.24
73671;BME280;61968;48.178;11.566;2023-07-09T00:31:40;96197.88;;;22.93;32.12
73671;BME280;61968;48.178;11.566;2023-07-09T00:34:08;96202.28;;;23.02;31.63
73671;BME280;61968;48.178;11.566;2023-07-09T00:36:37;96201.78;;;23.00;31.70
73671;BME280;61968;48.178;11.566;2023-07-09T00:39:03;96195.78;;;23.03;31.50
73671;BME280;61968;48.178;11.566;2023-07-09T00:41:33;96200.56;;;23.06;31.81
73671;BME280;61968;48.178;11.566;2023-07-09T00:44:20;96205.25;;;23.01;31.79
73671;BME280;61968;48.178;11.566;2023-07-09T00:47:14;96204.56;;;22.95;32.06
73671;BME280;61968;48.178;11.566;2023-07-09T00:49:45;96202.78;;;22.90;31.90
73671;BME280;61968;48.178;11.566;2023-07-09T00:52:21;96210.53;;;22.78;32.53
73671;BME280;61968;48.178;11.566;2023-07-09T00:54:50;96209.72;;;22.64;32.58
73671;BME280;61968;48.178;11.566;2023-07-09T00:57:21;96212.31;;;22.69;32.10
73671;BME280;61968;48.178;11.566;2023-07-09T00:59:52;96215.31;;;22.67;32.52
73671;BME280;61968;48.178;11.566;2023-07-09T01:02:20;96209.91;;;22.67;32.32
73671;BME280;61968;48.178;11.566;2023-07-09T01:04:50;96207.53;;;22.66;32.51
73671;BME280;61968;48.178;11.566;2023-07-09T01:07:18;96213.28;;;22.59;32.67
73671;BME280;61968;48.178;11.566;2023-07-09T01:09:45;96216.66;;;22.51;32.92
73671;BME280;61968;48.178;11.566;2023-07-09T01:12:12;96218.09;;;22.62;32.86
73671;BME280;61968;48.178;11.566;2023-07-09T01:14:40;96217.28;;;22.62;32.69
73671;BME280;61968;48.178;11.566;2023-07-09T01:17:07;96218.66;;;22.59;32.36
73671;BME280;61968;48.178;11.566;2023-07-09T01:19:38;96228.41;;;22.55;32.82
73671;BME280;61968;48.178;11.566;2023-07-09T01:22:11;96226.91;;;22.49;33.13
73671;BME280;61968;48.178;11.566;2023-07-09T01:24:55;96231.88;;;22.42;33.45
73671;BME280;61968;48.178;11.566;2023-07-09T01:27:25;96228.69;;;22.40;33.50
73671;BME280;61968;48.178;11.566;2023-07-09T01:29:53;96229.28;;;22.37;33.54
73671;BME280;61968;48.178;11.566;2023-07-09T01:32:20;96223.28;;;22.40;33.52
73671;BME280;61968;48.178;11.566;2023-07-09T01:34:51;96231.09;;;22.41;33.14
73671;BME280;61968;48.178;11.566;2023-07-09T01:37:23;96232.47;;;22.39;33.55
73671;BME280;61968;48.178;11.566;2023-07-09T01:39:50;96226.28;;;22.38;33.20
73671;BME280;61968;48.178;11.566;2023-07-09T01:42:17;96228.75;;;22.35;33.32
73671;BME280;61968;48.178;11.566;2023-07-09T01:44:46;96222.56;;;22.34;34.00
73671;BME280;61968;48.178;11.566;2023-07-09T01:47:13;96221.16;;;22.23;33.83
73671;BME280;61968;48.178;11.566;2023-07-09T01:49:40;96227.03;;;22.25;33.78
73671;BME280;61968;48.178;11.566;2023-07-09T01:52:07;96225.44;;;22.24;33.92
73671;BME280;61968;48.178;11.566;2023-07-09T01:54:36;96223.91;;;22.18;33.93
73671;BME280;61968;48.178;11.566;2023-07-09T01:57:14;96222.09;;;22.13;33.47
73671;BME280;61968;48.178;11.566;2023-07-09T01:59:41;96229.16;;;22.09;34.17
73671;BME280;61968;48.178;11.566;2023-07-09T02:02:09;96229.38;;;22.13;33.89
73671;BME280;61968;48.178;11.566;2023-07-09T02:04:47;96229.97;;;22.10;34.05
73671;BME280;61968;48.178;11.566;2023-07-09T02:07:15;96225.09;;;22.12;34.36
73671;BME280;61968;48.178;11.566;2023-07-09T02:09:43;96230.47;;;22.12;33.99
73671;BME280;61968;48.178;11.566;2023-07-09T02:12:11;96236.06;;;22.15;34.23
73671;BME280;61968;48.178;11.566;2023-07-09T02:14:38;96230.25;;;22.08;34.32
73671;BME280;61968;48.178;11.566;2023-07-09T02:17:05;96222.53;;;22.02;34.23
73671;BME280;61968;48.178;11.566;2023-07-09T02:19:32;96238.97;;;22.00;34.25
73671;BME280;61968;48.178;11.566;2023-07-09T02:21:59;96235.13;;;21.87;34.63
73671;BME280;61968;48.178;11.566;2023-07-09T02:24:26;96223.63;;;21.82;34.58
73671;BME280;61968;48.178;11.566;2023-07-09T02:26:54;96233.28;;;21.83;34.91
73671;BME280;61968;48.178;11.566;2023-07-09T02:29:21;96229.00;;;21.82;34.59
73671;BME280;61968;48.178;11.566;2023-07-09T02:31:48;96240.78;;;21.86;34.70
73671;BME280;61968;48.178;11.566;2023-07-09T02:34:16;96229.00;;;21.82;35.02
73671;BME280;61968;48.178;11.566;2023-07-09T02:36:42;96230.66;;;21.77;35.05
73671;BME280;61968;48.178;11.566;2023-07-09T02:39:09;96227.53;;;21.70;34.87
73671;BME280;61968;48.178;11.566;2023-07-09T02:41:36;96231.00;;;21.71;35.07
73671;BME280;61968;48.178;11.566;2023-07-09T02:44:04;96241.94;;;21.80;34.78
73671;BME280;61968;48.178;11.566;2023-07-09T02:46:30;96239.81;;;21.76;35.03
73671;BME280;61968;48.178;11.566;2023-07-09T02:48:57;96236.56;;;21.80;34.64
73671;BME280;61968;48.178;11.566;2023-07-09T02:51:24;96239.25;;;21.80;35.14
73671;BME280;61968;48.178;11.566;2023-07-09T02:53:52;96236.56;;;21.80;34.80
73671;BME280;61968;48.178;11.566;2023-07-09T02:56:18;96239.97;;;21.85;34.79
73671;BME280;61968;48.178;11.566;2023-07-09T02:58:45;96236.50;;;21.85;34.84
73671;BME280;61968;48.178;11.566;2023-07-09T03:01:13;96232.06;;;21.75;35.02
73671;BME280;61968;48.178;11.566;2023-07-09T03:03:39;96237.44;;;21.75;34.83
73671;BME280;61968;48.178;11.566;2023-07-09T03:06:06;96240.56;;;21.82;34.64
73671;BME280;61968;48.178;11.566;2023-07-09T03:08:33;96248.19;;;21.75;34.90
73671;BME280;61968;48.178;11.566;2023-07-09T03:11:02;96250.16;;;21.69;35.10
73671;BME280;61968;48.178;11.566;2023-07-09T03:13:33;96247.16;;;21.71;34.96
73671;BME280;61968;48.178;11.566;2023-07-09T03:16:00;96247.47;;;21.69;34.99
73671;BME280;61968;48.178;11.566;2023-07-09T03:18:28;96248.47;;;21.73;35.08
73671;BME280;61968;48.178;11.566;2023-07-09T03:20:54;96246.53;;;21.79;34.91
73671;BME280;61968;48.178;11.566;2023-07-09T03:23:21;96247.38;;;21.74;35.12
73671;BME280;61968;48.178;11.566;2023-07-09T03:25:47;96248.34;;;21.84;34.93
73671;BME280;61968;48.178;11.566;2023-07-09T03:28:14;96252.06;;;21.88;34.73
73671;BME280;61968;48.178;11.566;2023-07-09T03:30:41;96256.72;;;21.82;34.93
73671;BME280;61968;48.178;11.566;2023-07-09T03:33:08;96259.72;;;21.81;35.21
73671;BME280;61968;48.178;11.566;2023-07-09T03:35:37;96257.50;;;21.83;35.16
73671;BME280;61968;48.178;11.566;2023-07-09T03:38:04;96266.63;;;21.87;34.94
73671;BME280;61968;48.178;11.566;2023-07-09T03:40:30;96266.78;;;21.71;35.46
73671;BME280;61968;48.178;11.566;2023-07-09T03:42:58;96260.19;;;21.83;35.10
73671;BME280;61968;48.178;11.566;2023-07-09T03:45:24;96265.16;;;21.94;35.21
73671;BME280;61968;48.178;11.566;2023-07-09T03:47:51;96262.69;;;21.98;34.99
73671;BME280;61968;48.178;11.566;2023-07-09T03:50:18;96267.56;;;21.96;34.78
73671;BME280;61968;48.178;11.566;2023-07-09T03:52:45;96265.56;;;21.83;35.27
73671;BME280;61968;48.178;11.566;2023-07-09T03:55:12;96272.22;;;21.90;35.03
73671;BME280;61968;48.178;11.566;2023-07-09T03:57:40;96271.84;;;21.97;35.09
73671;BME280;61968;48.178;11.566;2023-07-09T04:00:07;96273.59;;;21.69;35.54
73671;BME280;61968;48.178;11.566;2023-07-09T04:02:36;96279.38;;;21.57;36.12
73671;BME280;61968;48.178;11.566;2023-07-09T04:05:03;96275.81;;;21.62;35.76
73671;BME280;61968;48.178;11.566;2023-07-09T04:07:29;96276.38;;;21.59;35.97
73671;BME280;61968;48.178;11.566;2023-07-09T04:09:57;96279.44;;;21.52;35.85
73671;BME280;61968;48.178;11.566;2023-07-09T04:12:24;96276.94;;;21.80;35.20
73671;BME280;61968;48.178;11.566;2023-07-09T04:14:50;96281.81;;;21.96;34.72
73671;BME280;61968;48.178;11.566;2023-07-09T04:17:17;96279.63;;;21.98;34.85
73671;BME280;61968;48.178;11.566;2023-07-09T04:19:44;96275.53;;;22.06;34.88
73671;BME280;61968;48.178;11.566;2023-07-09T04:22:11;96275.53;;;22.06;34.99
73671;BME280;61968;48.178;11.566;2023-07-09T04:24:37;96289.41;;;22.13;35.25
73671;BME280;61968;48.178;11.566;2023-07-09T04:27:05;96280.00;;;21.92;35.52
73671;BME280;61968;48.178;11.566;2023-07-09T04:29:32;96275.75;;;21.86;35.62
73671;BME280;61968;48.178;11.566;2023-07-09T04:32:00;96286.75;;;21.89;35.38
73671;BME280;61968;48.178;11.566;2023-07-09T04:34:27;96285.91;;;21.94;35.14
73671;BME280;61968;48.178;11.566;2023-07-09T04:36:53;96283.41;;;21.97;35.20
73671;BME280;61968;48.178;11.566;2023-07-09T04:39:20;96288.00;;;21.97;35.23
73671;BME280;61968;48.178;11.566;2023-07-09T04:41:47;96293.38;;;21.97;35.19
73671;BME280;61968;48.178;11.566;2023-07-09T04:44:15;96302.00;;;21.99;35.15
73671;BME280;61968;48.178;11.566;2023-07-09T04:46:41;96291.47;;;22.03;35.14
73671;BME280;61968;48.178;11.566;2023-07-09T04:49:08;96293.84;;;22.04;35.04
73671;BME280;61968;48.178;11.566;2023-07-09T04:51:37;96296.06;;;22.02;35.56
73671;BME280;61968;48.178;11.566;2023-07-09T04:54:04;96290.31;;;22.09;35.26
73671;BME280;61968;48.178;11.566;2023-07-09T04:56:30;96293.00;;;22.09;35.08
73671;BME280;61968;48.178;11.566;2023-07-09T04:58:57;96297.44;;;22.18;35.09
73671;BME280;61968;48.178;11.566;2023-07-09T05:01:25;96298.53;;;22.17;34.92
73671;BME280;61968;48.178;11.566;2023-07-09T05:03:51;96300.06;;;22.24;34.93
73671;BME280;61968;48.178;11.566;2023-07-09T05:06:18;96297.63;;;22.22;35.30
73671;BME280;61968;48.178;11.566;2023-07-09T05:08:44;96296.84;;;22.21;35.21
73671;BME280;61968;48.178;11.566;2023-07-09T05:11:13;96300.06;;;22.24;34.71
73671;BME280;61968;48.178;11.566;2023-07-09T05:13:40;96294.94;;;22.22;34.07
73671;BME280;61968;48.178;11.566;2023-07-09T05:16:07;96297.72;;;22.17;34.22
73671;BME280;61968;48.178;11.566;2023-07-09T05:18:35;96293.72;;;22.14;35.18
73671;BME280;61968;48.178;11.566;2023-07-09T05:21:02;96297.22;;;22.15;34.13
73671;BME280;61968;48.178;11.566;2023-07-09T05:23:29;96301.06;;;22.09;35.15
73671;BME280;61968;48.178;11.566;2023-07-09T05:25:56;96309.06;;;22.14;34.78
73671;BME280;61968;48.178;11.566;2023-07-09T05:28:23;96298.28;;;22.14;35.39
73671;BME280;61968;48.178;11.566;2023-07-09T05:30:50;96301.13;;;22.22;34.14
73671;BME280;61968;48.178;11.566;2023-07-09T05:33:17;96306.03;;;22.20;33.95
73671;BME280;61968;48.178;11.566;2023-07-09T05:35:45;96305.41;;;22.05;34.62
73671;BME280;61968;48.178;11.566;2023-07-09T05:38:12;96308.34;;;22.08;34.19
73671;BME280;61968;48.178;11.566;2023-07-09T05:40:39;96311.69;;;22.19;33.91
73671;BME280;61968;48.178;11.566;2023-07-09T05:43:05;96310.25;;;22.27;34.09
73671;BME280;61968;48.178;11.566;2023-07-09T05:45:32;96311.63;;;22.24;34.02
73671;BME280;61968;48.178;11.566;2023-07-09T05:47:59;96318.91;;;22.24;33.94
73671;BME280;61968;48.178;11.566;2023-07-09T05:50:27;96325.03;;;22.29;33.90
73671;BME280;61968;48.178;11.566;2023-07-09T05:52:55;96319.41;;;22.26;34.17
73671;BME280;61968;48.178;11.566;2023-07-09T05:55:22;96324.22;;;22.29;34.31
73671;BME280;61968;48.178;11.566;2023-07-09T05:57:48;96326.31;;;22.32;34.24
73671;BME280;61968;48.178;11.566;2023-07-09T06:00:15;96330.84;;;22.36;34.24
73671;BME280;61968;48.178;11.566;2023-07-09T06:02:42;96322.97;;;22.40;34.20
73671;BME280;61968;48.178;11.566;2023-07-09T06:05:08;96320.34;;;22.35;33.61
73671;BME280;61968;48.178;11.566;2023-07-09T06:07:36;96323.03;;;22.35;33.87
73671;BME280;61968;48.178;11.566;2023-07-09T06:10:05;96319.19;;;22.22;33.37
73671;BME280;61968;48.178;11.566;2023-07-09T06:12:33;96326.47;;;22.21;33.69
73671;BME280;61968;48.178;11.566;2023-07-09T06:14:59;96323.34;;;22.33;33.86
73671;BME280;61968;48.178;11.566;2023-07-09T06:17:26;96326.25;;;22.37;33.61
73671;BME280;61968;48.178;11.566;2023-07-09T06:19:52;96333.16;;;22.43;33.50
73671;BME280;61968;48.178;11.566;2023-07-09T06:22:19;96333.16;;;22.43;33.69
73671;BME280;61968;48.178;11.566;2023-07-09T06:24:45;96334.63;;;22.54;33.80
73671;BME280;61968;48.178;11.566;2023-07-09T06:27:14;96334.69;;;22.68;33.12
73671;BME280;61968;48.178;11.566;2023-07-09T06:29:40;96328.50;;;22.67;33.01
73671;BME280;61968;48.178;11.566;2023-07-09T06:32:07;96340.53;;;22.75;32.90
73671;BME280;61968;48.178;11.566;2023-07-09T06:34:33;96336.59;;;22.67;32.43
73671;BME280;61968;48.178;11.566;2023-07-09T06:37:00;96337.31;;;22.73;32.38
73671;BME280;61968;48.178;11.566;2023-07-09T06:39:26;96330.75;;;22.79;32.21
73671;BME280;61968;48.178;11.566;2023-07-09T06:41:53;96329.94;;;22.79;32.41
73671;BME280;61968;48.178;11.566;2023-07-09T06:44:21;96332.66;;;22.79;32.46
73671;BME280;61968;48.178;11.566;2023-07-09T06:46:47;96330.81;;;22.74;32.56
73671;BME280;61968;48.178;11.566;2023-07-09T06:49:14;96332.56;;;22.84;32.58
73671;BME280;61968;48.178;11.566;2023-07-09T06:51:40;96325.41;;;22.93;32.27
73671;BME280;61968;48.178;11.566;2023-07-09T06:54:08;96332.00;;;23.01;32.27
73671;BME280;61968;48.178;11.566;2023-07-09T06:56:35;96331.28;;;22.95;32.23
73671;BME280;61968;48.178;11.566;2023-07-09T06:59:01;96326.59;;;22.87;32.33
73671;BME280;61968;48.178;11.566;2023-07-09T07:01:29;96326.13;;;22.99;31.50
73671;BME280;61968;48.178;11.566;2023-07-09T07:03:56;96326.63;;;23.01;32.13
73671;BME280;61968;48.178;11.566;2023-07-09T07:06:22;96331.72;;;23.02;31.77
73671;BME280;61968;48.178;11.566;2023-07-09T07:08:49;96330.28;;;22.91;31.68
73671;BME280;61968;48.178;11.566;2023-07-09T07:11:16;96329.91;;;22.98;31.42
73671;BME280;61968;48.178;11.566;2023-07-09T07:13:43;96326.03;;;23.04;31.28
73671;BME280;61968;48.178;11.566;2023-07-09T07:16:15;96335.69;;;23.24;31.20
73671;BME280;61968;48.178;11.566;2023-07-09T07:18:43;96335.69;;;23.38;31.18
73671;BME280;61968;48.178;11.566;2023-07-09T07:21:10;96330.81;;;23.40;31.10
73671;BME280;61968;48.178;11.566;2023-07-09T07:23:39;96331.72;;;23.49;31.05
73671;BME280;61968;48.178;11.566;2023-07-09T07:26:06;96330.72;;;23.58;30.85
73671;BME280;61968;48.178;11.566;2023-07-09T07:28:34;96327.59;;;23.65;30.71
73671;BME280;61968;48.178;11.566;2023-07-09T07:31:03;96326.53;;;23.66;30.75
73671;BME280;61968;48.178;11.566;2023-07-09T07:33:29;96332.63;;;23.72;30.60
73671;BME280;61968;48.178;11.566;2023-07-09T07:35:57;96326.84;;;23.78;30.87
73671;BME280;61968;48.178;11.566;2023-07-09T07:38:24;96319.91;;;23.86;30.05
73671;BME280;61968;48.178;11.566;2023-07-09T07:40:51;96322.91;;;23.71;29.44
73671;BME280;61968;48.178;11.566;2023-07-09T07:43:17;96322.81;;;23.76;29.46
73671;BME280;61968;48.178;11.566;2023-07-09T07:45:44;96323.13;;;23.88;28.54
73671;BME280;61968;48.178;11.566;2023-07-09T07:48:10;96320.00;;;23.67;28.14
73671;BME280;61968;48.178;11.566;2023-07-09T07:50:37;96328.19;;;23.62;29.47
73671;BME280;61968;48.178;11.566;2023-07-09T07:53:05;96319.13;;;23.72;29.37
73671;BME280;61968;48.178;11.566;2023-07-09T07:55:33;96317.50;;;23.71;29.27
73671;BME280;61968;48.178;11.566;2023-07-09T07:58:01;96321.63;;;23.82;29.27
73671;BME280;61968;48.178;11.566;2023-07-09T08:00:31;96314.94;;;23.93;28.97
73671;BME280;61968;48.178;11.566;2023-07-09T08:02:58;96303.91;;;24.03;28.96
73671;BME280;61968;48.178;11.566;2023-07-09T08:05:24;96313.72;;;23.99;28.80
73671;BME280;61968;48.178;11.566;2023-07-09T08:07:51;96312.13;;;23.85;29.08
73671;BME280;61968;48.178;11.566;2023-07-09T08:10:19;96308.91;;;23.96;28.85
73671;BME280;61968;48.178;11.566;2023-07-09T08:12:48;96310.81;;;23.96;28.95
73671;BME280;61968;48.178;11.566;2023-07-09T08:15:15;96306.78;;;24.07;28.92
73671;BME280;61968;48.178;11.566;2023-07-09T08:17:42;96311.38;;;24.20;28.77
73671;BME280;61968;48.178;11.566;2023-07-09T08:20:09;96314.63;;;24.31;28.45
73671;BME280;61968;48.178;11.566;2023-07-09T08:22:36;96309.66;;;24.38;28.36
73671;BME280;61968;48.178;11.566;2023-07-09T08:25:04;96306.63;;;24.40;28.30
73671;BME280;61968;48.178;11.566;2023-07-09T08:27:32;96310.94;;;24.27;27.94
73671;BME280;61968;48.178;11.566;2023-07-09T08:29:58;96301.88;;;24.23;27.64
73671;BME280;61968;48.178;11.566;2023-07-09T08:32:25;96303.75;;;24.36;28.05
73671;BME280;61968;48.178;11.566;2023-07-09T08:34:56;96294.66;;;24.55;27.52
73671;BME280;61968;48.178;11.566;2023-07-09T08:37:23;96296.50;;;24.68;27.68
73671;BME280;61968;48.178;11.566;2023-07-09T08:39:49;96295.75;;;24.76;27.33
73671;BME280;61968;48.178;11.566;2023-07-09T08:42:22;96299.81;;;24.65;26.63
73671;BME280;61968;48.178;11.566;2023-07-09T08:45:09;96292.03;;;24.63;26.98
73671;BME280;61968;48.178;11.566;2023-07-09T08:47:48;96294.22;;;24.84;26.86
73671;BME280;61968;48.178;11.566;2023-07-09T08:50:21;96294.78;;;24.94;26.96
73671;BME280;61968;48.178;11.566;2023-07-09T08:52:50;96294.03;;;25.03;26.39
73671;BME280;61968;48.178;11.566;2023-07-09T08:55:20;96289.59;;;25.07;26.65
73671;BME280;61968;48.178;11.566;2023-07-09T08:57:49;96295.72;;;25.21;26.46
73671;BME280;61968;48.178;11.566;2023-07-09T09:00:23;96287.94;;;25.28;25.86
73671;BME280;61968;48.178;11.566;2023-07-09T09:02:56;96294.50;;;25.36;26.43
73671;BME280;61968;48.178;11.566;2023-07-09T09:05:25;96290.84;;;25.40;26.46
73671;BME280;61968;48.178;11.566;2023-07-09T09:07:56;96290.22;;;25.44;26.10
73671;BME280;61968;48.178;11.566;2023-07-09T09:10:29;96291.19;;;25.39;25.85
73671;BME280;61968;48.178;11.566;2023-07-09T09:13:05;96289.16;;;25.45;25.11
73671;BME280;61968;48.178;11.566;2023-07-09T09:15:36;96294.78;;;25.57;24.96
73671;BME280;61968;48.178;11.566;2023-07-09T09:18:19;96301.47;;;25.59;23.99
73671;BME280;61968;48.178;11.566;2023-07-09T09:20:51;96294.78;;;25.57;24.21
73671;BME280;61968;48.178;11.566;2023-07-09T09:23:20;96301.78;;;25.58;24.53
73671;BME280;61968;48.178;11.566;2023-07-09T09:25:50;96302.75;;;25.62;23.65
73671;BME280;61968;48.178;11.566;2023-07-09T09:28:18;96294.16;;;25.60;23.71
73671;BME280;61968;48.178;11.566;2023-07-09T09:30:46;96300.94;;;25.49;24.34
73671;BME280;61968;48.178;11.566;2023-07-09T09:33:16;96293.47;;;25.46;24.01
73671;BME280;61968;48.178;11.566;2023-07-09T09:35:44;96287.28;;;25.54;24.04
73671;BME280;61968;48.178;11.566;2023-07-09T09:38:17;96297.66;;;25.60;23.69
73671;BME280;61968;48.178;11.566;2023-07-09T09:40:43;96296.19;;;25.54;23.71
73671;BME280;61968;48.178;11.566;2023-07-09T09:43:13;96296.22;;;25.63;24.15
73671;BME280;61968;48.178;11.566;2023-07-09T09:45:40;96298.50;;;25.78;24.24
73671;BME280;61968;48.178;11.566;2023-07-09T09:48:14;96292.31;;;25.87;24.60
73671;BME280;61968;48.178;11.566;2023-07-09T09:50:42;96296.47;;;25.93;23.96
73671;BME280;61968;48.178;11.566;2023-07-09T09:53:18;96299.38;;;26.05;24.31
73671;BME280;61968;48.178;11.566;2023-07-09T09:55:45;96289.50;;;26.09;24.09
73671;BME280;61968;48.178;11.566;2023-07-09T09:58:14;96301.13;;;26.10;24.13
73671;BME280;61968;48.178;11.566;2023-07-09T10:00:47;96291.56;;;26.12;23.76
73671;BME280;61968;48.178;11.566;2023-07-09T10:03:15;96290.91;;;26.06;23.26
73671;BME280;61968;48.178;11.566;2023-07-09T10:05:44;96290.28;;;26.10;23.60
73671;BME280;61968;48.178;11.566;2023-07-09T10:08:17;96286.78;;;26.18;23.54
73671;BME280;61968;48.178;11.566;2023-07-09T10:10:51;96288.88;;;26.21;23.44
73671;BME280;61968;48.178;11.566;2023-07-09T10:13:24;96283.44;;;26.12;23.49
73671;BME280;61968;48.178;11.566;2023-07-09T10:16:01;96283.91;;;26.14;23.90
73671;BME280;61968;48.178;11.566;2023-07-09T10:18:39;96291.41;;;26.17;23.86
73671;BME280;61968;48.178;11.566;2023-07-09T10:21:14;96288.88;;;26.29;23.46
73671;BME280;61968;48.178;11.566;2023-07-09T10:23:48;96290.44;;;26.22;23.78
73671;BME280;61968;48.178;11.566;2023-07-09T10:26:24;96284.56;;;26.20;23.75
73671;BME280;61968;48.178;11.566;2023-07-09T10:29:04;96291.72;;;26.24;23.35
73671;BME280;61968;48.178;11.566;2023-07-09T10:31:41;96283.13;;;26.40;23.68
73671;BME280;61968;48.178;11.566;2023-07-09T10:34:21;96281.03;;;26.45;23.02
73671;BME280;61968;48.178;11.566;2023-07-09T10:37:04;96285.34;;;26.46;23.21
73671;BME280;61968;48.178;11.566;2023-07-09T10:39:38;96289.66;;;26.47;23.61
73671;BME280;61968;48.178;11.566;2023-07-09T10:42:12;96293.34;;;26.51;23.38
73671;BME280;61968;48.178;11.566;2023-07-09T10:44:47;96291.59;;;26.56;23.79
73671;BME280;61968;48.178;11.566;2023-07-09T10:47:26;96291.28;;;26.57;23.90
73671;BME280;61968;48.178;11.566;2023-07-09T10:49:55;96291.44;;;26.61;22.60
73671;BME280;61968;48.178;11.566;2023-07-09T10:52:27;96289.34;;;26.66;23.22
73671;BME280;61968;48.178;11.566;2023-07-09T10:54:56;96284.28;;;26.56;22.51
73671;BME280;61968;48.178;11.566;2023-07-09T10:57:29;96288.56;;;26.57;23.21
73671;BME280;61968;48.178;11.566;2023-07-09T10:59:57;96285.22;;;26.60;23.04
73671;BME280;61968;48.178;11.566;2023-07-09T11:02:26;96281.84;;;26.63;23.18
73671;BME280;61968;48.178;11.566;2023-07-09T11:04:56;96276.28;;;26.68;23.47
73671;BME280;61968;48.178;11.566;2023-07-09T11:07:27;96269.22;;;26.76;23.95
73671;BME280;61968;48.178;11.566;2023-07-09T11:09:57;96272.25;;;26.83;23.25
73671;BME280;61968;48.178;11.566;2023-07-09T11:12:28;96270.34;;;26.84;22.89
73671;BME280;61968;48.178;11.566;2023-07-09T11:14:59;96265.19;;;26.91;22.33
73671;BME280;61968;48.178;11.566;2023-07-09T11:17:27;96260.41;;;26.96;22.42
73671;BME280;61968;48.178;11.566;2023-07-09T11:19:58;96267.28;;;27.03;22.64
73671;BME280;61968;48.178;11.566;2023-07-09T11:22:34;96258.47;;;26.97;22.42
73671;BME280;61968;48.178;11.566;2023-07-09T11:25:09;96258.63;;;27.01;22.65
73671;BME280;61968;48.178;11.566;2023-07-09T11:27:48;96263.13;;;26.96;22.60
73671;BME280;61968;48.178;11.566;2023-07-09T11:30:22;96270.13;;;27.06;21.51
73671;BME280;61968;48.178;11.566;2023-07-09T11:32:53;96258.28;;;27.19;22.54
73671;BME280;61968;48.178;11.566;2023-07-09T11:35:25;96258.94;;;27.16;22.41
73671;BME280;61968;48.178;11.566;2023-07-09T11:37:52;96253.63;;;27.29;22.25
73671;BME280;61968;48.178;11.566;2023-07-09T11:40:20;96251.94;;;27.45;21.75
73671;BME280;61968;48.178;11.566;2023-07-09T11:42:49;96248.19;;;27.58;21.81
73671;BME280;61968;48.178;11.566;2023-07-09T11:45:20;96244.16;;;27.64;20.53
73671;BME280;61968;48.178;11.566;2023-07-09T11:47:51;96238.81;;;27.56;20.63
73671;BME280;61968;48.178;11.566;2023-07-09T11:50:26;96245.34;;;27.55;20.82
73671;BME280;61968;48.178;11.566;2023-07-09T11:52:56;96236.41;;;27.54;20.61
73671;BME280;61968;48.178;11.566;2023-07-09T11:55:28;96239.91;;;27.55;20.87
73671;BME280;61968;48.178;11.566;2023-07-09T11:57:56;96237.41;;;27.71;21.60
73671;BME280;61968;48.178;11.566;2023-07-09T12:00:26;96232.53;;;27.85;22.04
73671;BME280;61968;48.178;11.566;2023-07-09T12:02:54;96221.72;;;27.97;22.04
73671;BME280;61968;48.178;11.566;2023-07-09T12:05:27;96225.72;;;28.00;22.29
73671;BME280;61968;48.178;11.566;2023-07-09T12:07:56;96229.69;;;28.02;20.85
73671;BME280;61968;48.178;11.566;2023-07-09T12:10:24;96224.41;;;28.06;20.69
73671;BME280;61968;48.178;11.566;2023-07-09T12:12:55;96216.09;;;28.02;21.54
73671;BME280;61968;48.178;11.566;2023-07-09T12:15:24;96206.22;;;27.98;21.66
73671;BME280;61968;48.178;11.566;2023-07-09T12:17:58;96211.34;;;27.99;21.09
73671;BME280;61968;48.178;11.566;2023-07-09T12:20:29;96218.44;;;28.13;21.32
73671;BME280;61968;48.178;11.566;2023-07-09T12:22:56;96212.13;;;28.21;20.71
73671;BME280;61968;48.178;11.566;2023-07-09T12:25:24;96204.91;;;28.25;21.40
73671;BME280;61968;48.178;11.566;2023-07-09T12:27:52;96201.19;;;28.29;21.33
73671;BME280;61968;48.178;11.566;2023-07-09T12:30:19;96194.06;;;28.37;21.44
73671;BME280;61968;48.178;11.566;2023-07-09T12:32:47;96194.66;;;28.43;21.10
73671;BME280;61968;48.178;11.566;2023-07-09T12:35:16;96202.38;;;28.41;20.91
73671;BME280;61968;48.178;11.566;2023-07-09T12:37:46;96190.91;;;28.35;21.16
73671;BME280;61968;48.178;11.566;2023-07-09T12:40:16;96202.69;;;28.39;21.86
73671;BME280;61968;48.178;11.566;2023-07-09T12:42:43;96192.06;;;28.46;21.76
73671;BME280;61968;48.178;11.566;2023-07-09T12:45:15;96188.22;;;28.47;20.84
73671;BME280;61968;48.178;11.566;2023-07-09T12:47:41;96191.94;;;28.43;20.50
73671;BME280;61968;48.178;11.566;2023-07-09T12:50:18;96183.19;;;28.37;20.88
73671;BME280;61968;48.178;11.566;2023-07-09T12:52:47;96179.34;;;28.38;20.40
73671;BME280;61968;48.178;11.566;2023-07-09T12:55:22;96182.72;;;28.23;20.21
73671;BME280;61968;48.178;11.566;2023-07-09T12:57:48;96180.78;;;28.23;20.78
73671;BME280;61968;48.178;11.566;2023-07-09T13:00:17;96174.47;;;28.31;20.60